sensor_id;sensor_type;location;lat;lon;timestamp;temperature;humidity
48752;DHT22;34544;48.836;9.174;2022-12-07T00:00:50;4.70;99.90
48752;DHT22;34544;48.836;9.174;2022-12-07T00:03:16;4.70;99.90
48752;DHT22;34544;48.836;9.174;2022-12-07T00:05:41;4.70;99.90
48752;DHT22;34544;48.836;9.174;2022-12-07T00:08:07;4.70;99.90
48752;DHT22;34544;48.836;9.174;2022-12-07T00:10:34;4.70;99.90
48752;DHT22;34544;48.836;9.174;2022-12-07T00:12:59;4.60;99.90
48752;DHT22;34544;48.836;9.174;2022-12-07T00:15:25;4.70;99.90
48752;DHT22;34544;48.836;9.174;2022-12-07T00:17:51;4.60;99.90
48752;DHT22;34544;48.836;9.174;2022-12-07T00:20:16;4.70;99.90
48752;DHT22;34544;48.836;9.174;2022-12-07T00:22:42;4.70;99.90
48752;DHT22;34544;48.836;9.174;2022-12-07T00:25:08;4.70;99.90
48752;DHT22;34544;48.836;9.174;2022-12-07T00:27:33;4.70;99.90
48752;DHT22;34544;48.836;9.174;2022-12-07T00:29:59;4.70;99.90
48752;DHT22;34544;48.836;9.174;2022-12-07T00:32:25;4.70;99.90
48752;DHT22;34544;48.836;9.174;2022-12-07T00:34:50;4.70;99.90
48752;DHT22;34544;48.836;9.174;2022-12-07T00:37:16;4.70;99.90
48752;DHT22;34544;48.836;9.174;2022-12-07T00:39:42;4.60;99.90
48752;DHT22;34544;48.836;9.174;2022-12-07T00:42:07;4.60;99.90
48752;DHT22;34544;48.836;9.174;2022-12-07T00:44:33;4.60;99.90
48752;DHT22;34544;48.836;9.174;2022-12-07T00:46:58;4.60;99.90
48752;DHT22;34544;48.836;9.174;2022-12-07T00:49:24;4.60;99.90
48752;DHT22;34544;48.836;9.174;2022-12-07T00:51:50;4.50;99.90
48752;DHT22;34544;48.836;9.174;2022-12-07T00:54:15;4.50;99.90
48752;DHT22;34544;48.836;9.174;2022-12-07T00:56:41;4.50;99.90
48752;DHT22;34544;48.836;9.174;2022-12-07T00:59:10;4.50;99.90
48752;DHT22;34544;48.836;9.174;2022-12-07T01:01:36;4.50;99.90
48752;DHT22;34544;48.836;9.174;2022-12-07T01:04:03;4.50;99.90
48752;DHT22;34544;48.836;9.174;2022-12-07T01:06:30;4.40;99.90
48752;DHT22;34544;48.836;9.174;2022-12-07T01:08:55;4.50;99.90
48752;DHT22;34544;48.836;9.174;2022-12-07T01:11:24;4.40;99.90
48752;DHT22;34544;48.836;9.174;2022-12-07T01:13:51;4.40;99.90
48752;DHT22;34544;48.836;9.174;2022-12-07T01:16:18;4.40;99.90
48752;DHT22;34544;48.836;9.174;2022-12-07T01:18:47;4.40;99.90
48752;DHT22;34544;48.836;9.174;2022-12-07T01:21:19;4.30;99.90
48752;DHT22;34544;48.836;9.174;2022-12-07T01:23:46;4.30;99.90
48752;DHT22;34544;48.836;9.174;2022-12-07T01:26:14;4.30;99.90
48752;DHT22;34544;48.836;9.174;2022-12-07T01:28:40;4.30;99.90
48752;DHT22;34544;48.836;9.174;2022-12-07T01:31:15;4.30;99.90
48752;DHT22;34544;48.836;9.174;2022-12-07T01:33:43;4.30;99.90
48752;DHT22;34544;48.836;9.174;2022-12-07T01:38:42;4.30;99.90
48752;DHT22;34544;48.836;9.174;2022-12-07T01:41:08;4.30;99.90
48752;DHT22;34544;48.836;9.174;2022-12-07T01:43:35;4.30;99.90
48752;DHT22;34544;48.836;9.174;2022-12-07T01:46:02;4.30;99.90
48752;DHT22;34544;48.836;9.174;2022-12-07T01:48:34;4.30;99.90
48752;DHT22;34544;48.836;9.174;2022-12-07T01:51:07;4.30;99.90
48752;DHT22;34544;48.836;9.174;2022-12-07T01:53:36;4.30;99.90
48752;DHT22;34544;48.836;9.174;2022-12-07T01:56:05;4.30;99.90
48752;DHT22;34544;48.836;9.174;2022-12-07T01:58:32;4.30;99.90
48752;DHT22;34544;48.836;9.174;2022-12-07T02:00:58;4.30;99.90
48752;DHT22;34544;48.836;9.174;2022-12-07T02:03:34;4.30;99.90
48752;DHT22;34544;48.836;9.174;2022-12-07T02:06:01;4.30;99.90
48752;DHT22;34544;48.836;9.174;2022-12-07T02:08:27;4.20;99.90
48752;DHT22;34544;48.836;9.174;2022-12-07T02:10:53;4.20;99.90
48752;DHT22;34544;48.836;9.174;2022-12-07T02:13:26;4.20;99.90
48752;DHT22;34544;48.836;9.174;2022-12-07T02:16:10;4.20;99.90
48752;DHT22;34544;48.836;9.174;2022-12-07T02:21:29;4.20;99.90
48752;DHT22;34544;48.836;9.174;2022-12-07T02:28:01;4.20;99.90
48752;DHT22;34544;48.836;9.174;2022-12-07T02:29:58;4.20;99.90
48752;DHT22;34544;48.836;9.174;2022-12-07T02:36:02;4.20;99.90
48752;DHT22;34544;48.836;9.174;2022-12-07T02:43:23;4.20;99.90
48752;DHT22;34544;48.836;9.174;2022-12-07T02:45:51;4.20;99.90
48752;DHT22;34544;48.836;9.174;2022-12-07T02:48:18;4.20;99.90
48752;DHT22;34544;48.836;9.174;2022-12-07T02:50:53;4.20;99.90
48752;DHT22;34544;48.836;9.174;2022-12-07T02:53:41;4.20;99.90
48752;DHT22;34544;48.836;9.174;2022-12-07T03:07:26;4.20;99.90
48752;DHT22;34544;48.836;9.174;2022-12-07T03:13:32;4.10;99.90
48752;DHT22;34544;48.836;9.174;2022-12-07T03:16:12;4.10;99.90
48752;DHT22;34544;48.836;9.174;2022-12-07T03:18:57;4.10;99.90
48752;DHT22;34544;48.836;9.174;2022-12-07T03:21:39;4.10;99.90
48752;DHT22;34544;48.836;9.174;2022-12-07T03:24:15;4.00;99.90
48752;DHT22;34544;48.836;9.174;2022-12-07T03:26:47;4.00;99.90
48752;DHT22;34544;48.836;9.174;2022-12-07T03:29:26;4.00;99.90
48752;DHT22;34544;48.836;9.174;2022-12-07T03:32:11;4.00;99.90
48752;DHT22;34544;48.836;9.174;2022-12-07T03:34:47;4.00;99.90
48752;DHT22;34544;48.836;9.174;2022-12-07T03:37:37;4.00;99.90
48752;DHT22;34544;48.836;9.174;2022-12-07T03:42:30;3.90;99.90
48752;DHT22;34544;48.836;9.174;2022-12-07T03:44:57;3.90;99.90
48752;DHT22;34544;48.836;9.174;2022-12-07T03:47:32;3.90;99.90
48752;DHT22;34544;48.836;9.174;2022-12-07T03:52:56;3.90;99.90
48752;DHT22;34544;48.836;9.174;2022-12-07T03:55:32;3.90;99.90
48752;DHT22;34544;48.836;9.174;2022-12-07T03:58:03;3.80;99.90
48752;DHT22;34544;48.836;9.174;2022-12-07T04:00:30;3.80;99.90
48752;DHT22;34544;48.836;9.174;2022-12-07T04:02:56;3.80;99.90
48752;DHT22;34544;48.836;9.174;2022-12-07T04:05:22;3.80;99.90
48752;DHT22;34544;48.836;9.174;2022-12-07T04:07:48;3.70;99.90
48752;DHT22;34544;48.836;9.174;2022-12-07T04:10:14;3.70;99.90
48752;DHT22;34544;48.836;9.174;2022-12-07T04:12:40;3.60;99.90
48752;DHT22;34544;48.836;9.174;2022-12-07T04:15:06;3.50;99.90
48752;DHT22;34544;48.836;9.174;2022-12-07T04:17:32;3.50;99.90
48752;DHT22;34544;48.836;9.174;2022-12-07T04:19:57;3.40;99.90
48752;DHT22;34544;48.836;9.174;2022-12-07T04:22:23;3.40;99.90
48752;DHT22;34544;48.836;9.174;2022-12-07T04:24:49;3.30;99.90
48752;DHT22;34544;48.836;9.174;2022-12-07T04:27:14;3.30;99.90
48752;DHT22;34544;48.836;9.174;2022-12-07T04:29:40;3.30;99.90
48752;DHT22;34544;48.836;9.174;2022-12-07T04:32:06;3.30;99.90
48752;DHT22;34544;48.836;9.174;2022-12-07T04:34:31;3.30;99.90
48752;DHT22;34544;48.836;9.174;2022-12-07T04:36:57;3.40;99.90
48752;DHT22;34544;48.836;9.174;2022-12-07T04:39:28;3.50;99.90
48752;DHT22;34544;48.836;9.174;2022-12-07T04:41:55;3.50;99.90
48752;DHT22;34544;48.836;9.174;2022-12-07T04:44:21;3.50;99.90
48752;DHT22;34544;48.836;9.174;2022-12-07T04:46:47;3.50;99.90
48752;DHT22;34544;48.836;9.174;2022-12-07T04:49:14;3.50;99.90
48752;DHT22;34544;48.836;9.174;2022-12-07T04:51:40;3.50;99.90
48752;DHT22;34544;48.836;9.174;2022-12-07T04:54:05;3.40;99.90
48752;DHT22;34544;48.836;9.174;2022-12-07T04:56:32;3.40;99.90
48752;DHT22;34544;48.836;9.174;2022-12-07T04:58:58;3.30;99.90
48752;DHT22;34544;48.836;9.174;2022-12-07T05:01:24;3.30;99.90
48752;DHT22;34544;48.836;9.174;2022-12-07T05:03:50;3.30;99.90
48752;DHT22;34544;48.836;9.174;2022-12-07T05:06:15;3.30;99.90
48752;DHT22;34544;48.836;9.174;2022-12-07T05:08:41;3.30;99.90
48752;DHT22;34544;48.836;9.174;2022-12-07T05:11:09;3.20;99.90
48752;DHT22;34544;48.836;9.174;2022-12-07T05:13:36;3.20;99.90
48752;DHT22;34544;48.836;9.174;2022-12-07T05:16:01;3.10;99.90
48752;DHT22;34544;48.836;9.174;2022-12-07T05:18:27;3.10;99.90
48752;DHT22;34544;48.836;9.174;2022-12-07T05:20:53;3.00;99.90
48752;DHT22;34544;48.836;9.174;2022-12-07T05:23:19;3.00;99.90
48752;DHT22;34544;48.836;9.174;2022-12-07T05:25:45;3.00;99.90
48752;DHT22;34544;48.836;9.174;2022-12-07T05:28:10;2.90;99.90
48752;DHT22;34544;48.836;9.174;2022-12-07T05:30:36;2.90;99.90
48752;DHT22;34544;48.836;9.174;2022-12-07T05:33:02;2.80;99.90
48752;DHT22;34544;48.836;9.174;2022-12-07T05:35:28;2.70;99.90
48752;DHT22;34544;48.836;9.174;2022-12-07T05:37:55;2.70;99.90
48752;DHT22;34544;48.836;9.174;2022-12-07T05:40:21;2.60;99.90
48752;DHT22;34544;48.836;9.174;2022-12-07T05:42:46;2.50;99.90
48752;DHT22;34544;48.836;9.174;2022-12-07T05:45:12;2.50;99.90
48752;DHT22;34544;48.836;9.174;2022-12-07T05:47:38;2.50;99.90
48752;DHT22;34544;48.836;9.174;2022-12-07T05:50:05;2.50;99.90
48752;DHT22;34544;48.836;9.174;2022-12-07T05:52:31;2.50;99.90
48752;DHT22;34544;48.836;9.174;2022-12-07T05:54:57;2.50;99.90
48752;DHT22;34544;48.836;9.174;2022-12-07T05:57:22;2.50;99.90
48752;DHT22;34544;48.836;9.174;2022-12-07T05:59:48;2.60;99.90
48752;DHT22;34544;48.836;9.174;2022-12-07T06:02:16;2.60;99.90
48752;DHT22;34544;48.836;9.174;2022-12-07T06:04:44;2.70;99.90
48752;DHT22;34544;48.836;9.174;2022-12-07T06:07:11;2.80;99.90
48752;DHT22;34544;48.836;9.174;2022-12-07T06:09:37;2.80;99.90
48752;DHT22;34544;48.836;9.174;2022-12-07T06:12:05;2.90;99.90
48752;DHT22;34544;48.836;9.174;2022-12-07T06:14:50;2.90;99.90
48752;DHT22;34544;48.836;9.174;2022-12-07T06:17:16;3.00;99.90
48752;DHT22;34544;48.836;9.174;2022-12-07T06:19:42;3.00;99.90
48752;DHT22;34544;48.836;9.174;2022-12-07T06:22:09;3.00;99.90
48752;DHT22;34544;48.836;9.174;2022-12-07T06:24:36;3.00;99.90
48752;DHT22;34544;48.836;9.174;2022-12-07T06:27:02;3.10;99.90
48752;DHT22;34544;48.836;9.174;2022-12-07T06:29:28;3.10;99.90
48752;DHT22;34544;48.836;9.174;2022-12-07T06:31:54;3.10;99.90
48752;DHT22;34544;48.836;9.174;2022-12-07T06:34:21;3.10;99.90
48752;DHT22;34544;48.836;9.174;2022-12-07T06:36:49;3.20;99.90
48752;DHT22;34544;48.836;9.174;2022-12-07T06:39:21;3.20;99.90
48752;DHT22;34544;48.836;9.174;2022-12-07T06:41:47;3.20;99.90
48752;DHT22;34544;48.836;9.174;2022-12-07T06:44:13;3.20;99.90
48752;DHT22;34544;48.836;9.174;2022-12-07T06:46:39;3.20;99.90
48752;DHT22;34544;48.836;9.174;2022-12-07T06:49:05;3.20;99.90
48752;DHT22;34544;48.836;9.174;2022-12-07T06:51:34;3.20;99.90
48752;DHT22;34544;48.836;9.174;2022-12-07T06:54:07;3.20;99.90
48752;DHT22;34544;48.836;9.174;2022-12-07T06:56:33;3.20;99.90
48752;DHT22;34544;48.836;9.174;2022-12-07T06:58:58;3.30;99.90
48752;DHT22;34544;48.836;9.174;2022-12-07T07:01:24;3.30;99.90
48752;DHT22;34544;48.836;9.174;2022-12-07T07:03:50;3.30;99.90
48752;DHT22;34544;48.836;9.174;2022-12-07T07:06:15;3.40;99.90
48752;DHT22;34544;48.836;9.174;2022-12-07T07:08:41;3.40;99.90
48752;DHT22;34544;48.836;9.174;2022-12-07T07:11:08;3.40;99.90
48752;DHT22;34544;48.836;9.174;2022-12-07T07:13:34;3.50;99.90
48752;DHT22;34544;48.836;9.174;2022-12-07T07:16:00;3.50;99.90
48752;DHT22;34544;48.836;9.174;2022-12-07T07:18:26;3.60;99.90
48752;DHT22;34544;48.836;9.174;2022-12-07T07:20:52;3.60;99.90
48752;DHT22;34544;48.836;9.174;2022-12-07T07:23:19;3.60;99.90
48752;DHT22;34544;48.836;9.174;2022-12-07T07:25:45;3.70;99.90
48752;DHT22;34544;48.836;9.174;2022-12-07T07:28:11;3.70;99.90
48752;DHT22;34544;48.836;9.174;2022-12-07T07:30:37;3.70;99.90
48752;DHT22;34544;48.836;9.174;2022-12-07T07:33:04;3.80;99.90
48752;DHT22;34544;48.836;9.174;2022-12-07T07:35:31;3.70;99.90
48752;DHT22;34544;48.836;9.174;2022-12-07T07:37:57;3.70;99.90
48752;DHT22;34544;48.836;9.174;2022-12-07T07:40:23;3.80;99.90
48752;DHT22;34544;48.836;9.174;2022-12-07T07:42:50;3.80;99.90
48752;DHT22;34544;48.836;9.174;2022-12-07T07:45:16;3.80;99.90
48752;DHT22;34544;48.836;9.174;2022-12-07T07:47:42;3.90;99.90
48752;DHT22;34544;48.836;9.174;2022-12-07T07:50:08;3.90;99.90
48752;DHT22;34544;48.836;9.174;2022-12-07T07:52:34;3.90;99.90
48752;DHT22;34544;48.836;9.174;2022-12-07T07:55:00;3.90;99.90
48752;DHT22;34544;48.836;9.174;2022-12-07T07:57:25;3.90;99.90
48752;DHT22;34544;48.836;9.174;2022-12-07T07:59:51;4.00;99.90
48752;DHT22;34544;48.836;9.174;2022-12-07T08:02:18;4.00;99.90
48752;DHT22;34544;48.836;9.174;2022-12-07T08:04:44;4.00;99.90
48752;DHT22;34544;48.836;9.174;2022-12-07T08:07:11;4.00;99.90
48752;DHT22;34544;48.836;9.174;2022-12-07T08:09:37;4.10;99.90
48752;DHT22;34544;48.836;9.174;2022-12-07T08:12:04;4.20;99.90
48752;DHT22;34544;48.836;9.174;2022-12-07T08:14:29;4.20;99.90
48752;DHT22;34544;48.836;9.174;2022-12-07T08:16:55;4.20;99.90
48752;DHT22;34544;48.836;9.174;2022-12-07T08:19:21;4.20;99.90
48752;DHT22;34544;48.836;9.174;2022-12-07T08:21:47;4.30;99.90
48752;DHT22;34544;48.836;9.174;2022-12-07T08:24:13;4.30;99.90
48752;DHT22;34544;48.836;9.174;2022-12-07T08:26:40;4.40;99.90
48752;DHT22;34544;48.836;9.174;2022-12-07T08:29:05;4.40;99.90
48752;DHT22;34544;48.836;9.174;2022-12-07T08:31:31;4.50;99.90
48752;DHT22;34544;48.836;9.174;2022-12-07T08:33:57;4.50;99.90
48752;DHT22;34544;48.836;9.174;2022-12-07T08:36:23;4.60;99.90
48752;DHT22;34544;48.836;9.174;2022-12-07T08:38:49;4.60;99.90
48752;DHT22;34544;48.836;9.174;2022-12-07T08:41:15;4.60;99.90
48752;DHT22;34544;48.836;9.174;2022-12-07T08:43:41;4.70;99.90
48752;DHT22;34544;48.836;9.174;2022-12-07T08:48:33;4.80;99.90
48752;DHT22;34544;48.836;9.174;2022-12-07T08:51:01;4.90;99.90
48752;DHT22;34544;48.836;9.174;2022-12-07T08:53:28;4.90;99.90
48752;DHT22;34544;48.836;9.174;2022-12-07T08:55:56;5.00;99.90
48752;DHT22;34544;48.836;9.174;2022-12-07T08:58:24;5.00;99.90
48752;DHT22;34544;48.836;9.174;2022-12-07T09:00:50;5.00;99.90
48752;DHT22;34544;48.836;9.174;2022-12-07T09:03:15;5.10;99.90
48752;DHT22;34544;48.836;9.174;2022-12-07T09:05:41;5.10;99.90
48752;DHT22;34544;48.836;9.174;2022-12-07T09:08:07;5.10;99.90
48752;DHT22;34544;48.836;9.174;2022-12-07T09:10:33;5.20;99.90
48752;DHT22;34544;48.836;9.174;2022-12-07T09:12:59;5.20;99.90
48752;DHT22;34544;48.836;9.174;2022-12-07T09:15:27;5.20;99.90
48752;DHT22;34544;48.836;9.174;2022-12-07T09:17:53;5.20;99.90
48752;DHT22;34544;48.836;9.174;2022-12-07T09:20:19;5.40;99.90
48752;DHT22;34544;48.836;9.174;2022-12-07T09:22:44;5.40;99.90
48752;DHT22;34544;48.836;9.174;2022-12-07T09:25:10;5.50;99.90
48752;DHT22;34544;48.836;9.174;2022-12-07T09:27:36;5.60;99.90
48752;DHT22;34544;48.836;9.174;2022-12-07T09:30:03;5.70;99.90
48752;DHT22;34544;48.836;9.174;2022-12-07T09:32:29;5.70;99.90
48752;DHT22;34544;48.836;9.174;2022-12-07T09:34:54;5.80;99.90
48752;DHT22;34544;48.836;9.174;2022-12-07T09:37:20;5.90;99.90
48752;DHT22;34544;48.836;9.174;2022-12-07T09:39:46;6.00;99.90
48752;DHT22;34544;48.836;9.174;2022-12-07T09:44:58;6.10;99.90
48752;DHT22;34544;48.836;9.174;2022-12-07T09:47:24;6.20;99.90
48752;DHT22;34544;48.836;9.174;2022-12-07T09:49:50;6.20;99.90
48752;DHT22;34544;48.836;9.174;2022-12-07T09:52:25;6.20;99.90
48752;DHT22;34544;48.836;9.174;2022-12-07T09:54:52;6.30;99.90
48752;DHT22;34544;48.836;9.174;2022-12-07T09:57:29;6.30;99.90
48752;DHT22;34544;48.836;9.174;2022-12-07T10:00:02;6.30;99.90
48752;DHT22;34544;48.836;9.174;2022-12-07T10:02:39;6.20;99.90
48752;DHT22;34544;48.836;9.174;2022-12-07T10:05:12;6.20;99.90
48752;DHT22;34544;48.836;9.174;2022-12-07T10:07:38;6.20;99.90
48752;DHT22;34544;48.836;9.174;2022-12-07T10:10:13;6.30;99.90
48752;DHT22;34544;48.836;9.174;2022-12-07T10:13:03;6.30;99.90
48752;DHT22;34544;48.836;9.174;2022-12-07T10:18:29;6.40;99.90
48752;DHT22;34544;48.836;9.174;2022-12-07T10:23:33;6.40;99.90
48752;DHT22;34544;48.836;9.174;2022-12-07T10:25:59;6.40;99.90
48752;DHT22;34544;48.836;9.174;2022-12-07T10:28:34;6.30;99.90
48752;DHT22;34544;48.836;9.174;2022-12-07T10:31:03;6.40;99.90
48752;DHT22;34544;48.836;9.174;2022-12-07T10:33:55;6.30;99.90
48752;DHT22;34544;48.836;9.174;2022-12-07T10:36:23;6.40;99.90
48752;DHT22;34544;48.836;9.174;2022-12-07T10:39:02;6.30;99.90
48752;DHT22;34544;48.836;9.174;2022-12-07T10:41:28;6.30;99.90
48752;DHT22;34544;48.836;9.174;2022-12-07T10:43:56;6.30;99.90
48752;DHT22;34544;48.836;9.174;2022-12-07T10:47:05;6.30;99.90
48752;DHT22;34544;48.836;9.174;2022-12-07T10:49:55;6.40;99.90
48752;DHT22;34544;48.836;9.174;2022-12-07T11:05:33;6.50;99.90
48752;DHT22;34544;48.836;9.174;2022-12-07T11:11:27;6.60;99.90
48752;DHT22;34544;48.836;9.174;2022-12-07T11:22:01;6.50;99.90
48752;DHT22;34544;48.836;9.174;2022-12-07T11:24:56;6.50;99.90
48752;DHT22;34544;48.836;9.174;2022-12-07T11:27:34;6.50;99.90
48752;DHT22;34544;48.836;9.174;2022-12-07T11:30:14;6.50;99.90
48752;DHT22;34544;48.836;9.174;2022-12-07T11:33:04;6.50;99.90
48752;DHT22;34544;48.836;9.174;2022-12-07T11:35:37;6.40;99.90
48752;DHT22;34544;48.836;9.174;2022-12-07T11:41:03;6.30;99.90
48752;DHT22;34544;48.836;9.174;2022-12-07T11:46:24;6.20;99.90
48752;DHT22;34544;48.836;9.174;2022-12-07T11:51:45;6.10;99.90
48752;DHT22;34544;48.836;9.174;2022-12-07T11:54:20;6.10;99.90
48752;DHT22;34544;48.836;9.174;2022-12-07T11:56:48;6.10;99.90
48752;DHT22;34544;48.836;9.174;2022-12-07T11:59:31;6.10;99.90
48752;DHT22;34544;48.836;9.174;2022-12-07T12:02:21;6.10;99.90
48752;DHT22;34544;48.836;9.174;2022-12-07T12:05:01;6.10;99.90
48752;DHT22;34544;48.836;9.174;2022-12-07T12:07:28;6.10;99.90
48752;DHT22;34544;48.836;9.174;2022-12-07T12:10:16;6.10;99.90
48752;DHT22;34544;48.836;9.174;2022-12-07T12:15:26;6.10;99.90
48752;DHT22;34544;48.836;9.174;2022-12-07T12:20:47;6.10;99.90
48752;DHT22;34544;48.836;9.174;2022-12-07T12:23:21;6.10;99.90
48752;DHT22;34544;48.836;9.174;2022-12-07T12:25:54;6.10;99.90
48752;DHT22;34544;48.836;9.174;2022-12-07T12:28:27;6.10;99.90
48752;DHT22;34544;48.836;9.174;2022-12-07T12:31:13;6.10;99.90
48752;DHT22;34544;48.836;9.174;2022-12-07T12:33:54;6.10;99.90
48752;DHT22;34544;48.836;9.174;2022-12-07T12:47:00;6.10;99.90
48752;DHT22;34544;48.836;9.174;2022-12-07T12:49:37;6.10;99.90
48752;DHT22;34544;48.836;9.174;2022-12-07T12:54:38;6.20;99.90
48752;DHT22;34544;48.836;9.174;2022-12-07T12:57:28;6.30;99.90
48752;DHT22;34544;48.836;9.174;2022-12-07T13:02:29;6.30;99.90
48752;DHT22;34544;48.836;9.174;2022-12-07T13:04:59;6.30;99.90
48752;DHT22;34544;48.836;9.174;2022-12-07T13:31:40;6.10;99.90
48752;DHT22;34544;48.836;9.174;2022-12-07T13:37:12;6.00;99.90
48752;DHT22;34544;48.836;9.174;2022-12-07T13:39:51;5.90;99.90
48752;DHT22;34544;48.836;9.174;2022-12-07T13:42:34;5.80;99.90
48752;DHT22;34544;48.836;9.174;2022-12-07T13:45:20;5.80;99.90
48752;DHT22;34544;48.836;9.174;2022-12-07T13:47:52;5.70;99.90
48752;DHT22;34544;48.836;9.174;2022-12-07T13:50:30;5.70;99.90
48752;DHT22;34544;48.836;9.174;2022-12-07T13:52:58;5.70;99.90
48752;DHT22;34544;48.836;9.174;2022-12-07T13:55:24;5.70;99.90
48752;DHT22;34544;48.836;9.174;2022-12-07T13:57:52;5.70;99.90
48752;DHT22;34544;48.836;9.174;2022-12-07T14:00:20;5.80;99.90
48752;DHT22;34544;48.836;9.174;2022-12-07T14:02:58;5.80;99.90
48752;DHT22;34544;48.836;9.174;2022-12-07T14:05:32;5.90;99.90
48752;DHT22;34544;48.836;9.174;2022-12-07T14:08:01;5.90;99.90
48752;DHT22;34544;48.836;9.174;2022-12-07T14:10:54;6.00;99.90
48752;DHT22;34544;48.836;9.174;2022-12-07T14:16:26;6.10;99.90
48752;DHT22;34544;48.836;9.174;2022-12-07T14:18:54;6.30;99.90
48752;DHT22;34544;48.836;9.174;2022-12-07T14:21:25;6.30;99.90
48752;DHT22;34544;48.836;9.174;2022-12-07T14:24:19;6.30;99.90
48752;DHT22;34544;48.836;9.174;2022-12-07T14:26:48;6.30;99.90
48752;DHT22;34544;48.836;9.174;2022-12-07T14:31:57;6.20;99.90
48752;DHT22;34544;48.836;9.174;2022-12-07T14:34:24;6.20;99.90
48752;DHT22;34544;48.836;9.174;2022-12-07T14:36:50;6.20;99.90
48752;DHT22;34544;48.836;9.174;2022-12-07T14:39:15;6.20;99.90
48752;DHT22;34544;48.836;9.174;2022-12-07T14:41:41;6.20;99.90
48752;DHT22;34544;48.836;9.174;2022-12-07T14:44:17;6.20;99.90
48752;DHT22;34544;48.836;9.174;2022-12-07T14:46:43;6.20;99.90
48752;DHT22;34544;48.836;9.174;2022-12-07T14:49:08;6.10;99.90
48752;DHT22;34544;48.836;9.174;2022-12-07T14:51:37;6.00;99.90
48752;DHT22;34544;48.836;9.174;2022-12-07T14:54:06;5.90;99.90
48752;DHT22;34544;48.836;9.174;2022-12-07T14:56:37;5.90;99.90
48752;DHT22;34544;48.836;9.174;2022-12-07T14:59:02;5.80;99.90
48752;DHT22;34544;48.836;9.174;2022-12-07T15:01:28;5.80;99.90
48752;DHT22;34544;48.836;9.174;2022-12-07T15:03:54;5.80;99.90
48752;DHT22;34544;48.836;9.174;2022-12-07T15:06:20;5.80;99.90
48752;DHT22;34544;48.836;9.174;2022-12-07T15:08:46;5.80;99.90
48752;DHT22;34544;48.836;9.174;2022-12-07T15:11:14;5.80;99.90
48752;DHT22;34544;48.836;9.174;2022-12-07T15:13:39;5.70;99.90
48752;DHT22;34544;48.836;9.174;2022-12-07T15:16:24;5.60;99.90
48752;DHT22;34544;48.836;9.174;2022-12-07T15:18:50;5.60;99.90
48752;DHT22;34544;48.836;9.174;2022-12-07T15:21:16;5.60;99.90
48752;DHT22;34544;48.836;9.174;2022-12-07T15:23:42;5.60;99.90
48752;DHT22;34544;48.836;9.174;2022-12-07T15:26:09;5.60;99.90
48752;DHT22;34544;48.836;9.174;2022-12-07T15:28:36;5.60;99.90
48752;DHT22;34544;48.836;9.174;2022-12-07T15:31:02;5.50;99.90
48752;DHT22;34544;48.836;9.174;2022-12-07T15:33:28;5.50;99.90
48752;DHT22;34544;48.836;9.174;2022-12-07T15:35:54;5.40;99.90
48752;DHT22;34544;48.836;9.174;2022-12-07T15:38:19;5.40;99.90
48752;DHT22;34544;48.836;9.174;2022-12-07T15:40:49;5.40;99.90
48752;DHT22;34544;48.836;9.174;2022-12-07T15:43:16;5.20;99.90
48752;DHT22;34544;48.836;9.174;2022-12-07T15:46:00;5.10;99.90
48752;DHT22;34544;48.836;9.174;2022-12-07T15:48:26;5.10;99.90
48752;DHT22;34544;48.836;9.174;2022-12-07T15:50:52;5.00;99.90
48752;DHT22;34544;48.836;9.174;2022-12-07T15:53:17;5.00;99.90
48752;DHT22;34544;48.836;9.174;2022-12-07T15:55:43;4.90;99.90
48752;DHT22;34544;48.836;9.174;2022-12-07T15:58:09;4.90;99.90
48752;DHT22;34544;48.836;9.174;2022-12-07T16:00:35;4.90;99.90
48752;DHT22;34544;48.836;9.174;2022-12-07T16:03:01;4.80;99.90
48752;DHT22;34544;48.836;9.174;2022-12-07T16:05:26;4.80;99.90
48752;DHT22;34544;48.836;9.174;2022-12-07T16:07:52;4.70;99.90
48752;DHT22;34544;48.836;9.174;2022-12-07T16:10:18;4.70;99.90
48752;DHT22;34544;48.836;9.174;2022-12-07T16:12:44;4.70;99.90
48752;DHT22;34544;48.836;9.174;2022-12-07T16:15:10;4.60;99.90
48752;DHT22;34544;48.836;9.174;2022-12-07T16:17:36;4.60;99.90
48752;DHT22;34544;48.836;9.174;2022-12-07T16:20:03;4.50;99.90
48752;DHT22;34544;48.836;9.174;2022-12-07T16:22:29;4.50;99.90
48752;DHT22;34544;48.836;9.174;2022-12-07T16:24:55;4.50;99.90
48752;DHT22;34544;48.836;9.174;2022-12-07T16:27:21;4.50;99.90
48752;DHT22;34544;48.836;9.174;2022-12-07T16:29:46;4.40;99.90
48752;DHT22;34544;48.836;9.174;2022-12-07T16:32:12;4.40;99.90
48752;DHT22;34544;48.836;9.174;2022-12-07T16:34:39;4.30;99.90
48752;DHT22;34544;48.836;9.174;2022-12-07T16:37:05;4.30;99.90
48752;DHT22;34544;48.836;9.174;2022-12-07T16:39:31;4.20;99.90
48752;DHT22;34544;48.836;9.174;2022-12-07T16:41:57;4.10;99.90
48752;DHT22;34544;48.836;9.174;2022-12-07T16:44:23;4.10;99.90
48752;DHT22;34544;48.836;9.174;2022-12-07T16:46:49;3.90;99.90
48752;DHT22;34544;48.836;9.174;2022-12-07T16:49:16;3.90;99.90
48752;DHT22;34544;48.836;9.174;2022-12-07T16:51:42;3.80;99.90
48752;DHT22;34544;48.836;9.174;2022-12-07T16:54:12;3.70;99.90
48752;DHT22;34544;48.836;9.174;2022-12-07T16:56:39;3.70;99.90
48752;DHT22;34544;48.836;9.174;2022-12-07T16:59:04;3.60;99.90
48752;DHT22;34544;48.836;9.174;2022-12-07T17:01:30;3.50;99.90
48752;DHT22;34544;48.836;9.174;2022-12-07T17:03:57;3.50;99.90
48752;DHT22;34544;48.836;9.174;2022-12-07T17:06:25;3.50;99.90
48752;DHT22;34544;48.836;9.174;2022-12-07T17:08:52;3.50;99.90
48752;DHT22;34544;48.836;9.174;2022-12-07T17:11:23;3.50;99.90
48752;DHT22;34544;48.836;9.174;2022-12-07T17:13:50;3.50;99.90
48752;DHT22;34544;48.836;9.174;2022-12-07T17:16:36;3.60;99.90
48752;DHT22;34544;48.836;9.174;2022-12-07T17:19:09;3.70;99.90
48752;DHT22;34544;48.836;9.174;2022-12-07T17:21:36;3.70;99.90
48752;DHT22;34544;48.836;9.174;2022-12-07T17:24:04;3.80;99.90
48752;DHT22;34544;48.836;9.174;2022-12-07T17:26:31;3.90;99.90
48752;DHT22;34544;48.836;9.174;2022-12-07T17:28:57;3.90;99.90
48752;DHT22;34544;48.836;9.174;2022-12-07T17:31:24;4.00;99.90
48752;DHT22;34544;48.836;9.174;2022-12-07T17:33:50;4.00;99.90
48752;DHT22;34544;48.836;9.174;2022-12-07T17:36:21;4.10;99.90
48752;DHT22;34544;48.836;9.174;2022-12-07T17:38:48;4.10;99.90
48752;DHT22;34544;48.836;9.174;2022-12-07T17:41:19;4.10;99.90
48752;DHT22;34544;48.836;9.174;2022-12-07T17:44:07;4.10;99.90
48752;DHT22;34544;48.836;9.174;2022-12-07T17:46:33;4.20;99.90
48752;DHT22;34544;48.836;9.174;2022-12-07T17:48:59;4.20;99.90
48752;DHT22;34544;48.836;9.174;2022-12-07T17:51:25;4.20;99.90
48752;DHT22;34544;48.836;9.174;2022-12-07T17:54:11;4.20;99.90
48752;DHT22;34544;48.836;9.174;2022-12-07T17:56:37;4.10;99.90
48752;DHT22;34544;48.836;9.174;2022-12-07T17:59:04;4.20;99.90
48752;DHT22;34544;48.836;9.174;2022-12-07T18:01:30;4.20;99.90
48752;DHT22;34544;48.836;9.174;2022-12-07T18:03:56;4.10;99.90
48752;DHT22;34544;48.836;9.174;2022-12-07T18:06:22;4.10;99.90
48752;DHT22;34544;48.836;9.174;2022-12-07T18:08:48;4.10;99.90
48752;DHT22;34544;48.836;9.174;2022-12-07T18:11:14;4.20;99.90